Time;durP1;ratioP1;P1;durP2;ratioP2;P2;SDS_P1;SDS_P2;PMS_P1;PMS_P2;Temp;Humidity;BMP_temperature;BMP_pressure;BME280_temperature;BME280_humidity;BME280_pressure;Samples;Min_cycle;Max_cycle;Signal;HPM_P1;HPM_P2
2022/10/31 00:01:48;;;;;;;24.10;16.63;;;;;;;11.64;100.00;99940.94;4972747;28;20459;-86
2022/10/31 00:04:14;;;;;;;23.02;15.65;;;;;;;11.59;100.00;99942.94;4913131;29;20036;-85
2022/10/31 00:06:39;;;;;;;22.65;15.77;;;;;;;11.58;100.00;99937.78;4912907;29;20111;-84
2022/10/31 00:09:05;;;;;;;24.23;15.65;;;;;;;11.59;100.00;99939.47;4912808;29;20044;-84
2022/10/31 00:11:30;;;;;;;24.17;14.82;;;;;;;11.60;100.00;99935.94;4913103;29;20460;-84
2022/10/31 00:13:58;;;;;;;24.15;15.50;;;;;;;11.61;100.00;99933.25;4912784;29;20480;-84
2022/10/31 00:16:25;;;;;;;23.15;13.95;;;;;;;11.50;100.00;99922.47;4912897;29;20130;-84
2022/10/31 00:18:55;;;;;;;19.10;12.73;;;;;;;11.59;100.00;99936.88;4912779;29;20036;-84
2022/10/31 00:21:21;;;;;;;27.40;14.53;;;;;;;11.53;100.00;99932.75;4912870;29;20115;-84
2022/10/31 00:23:47;;;;;;;21.27;14.60;;;;;;;11.49;100.00;99937.28;4914949;29;20495;-84
2022/10/31 00:26:13;;;;;;;22.63;14.52;;;;;;;11.43;100.00;99944.56;4916589;29;20066;-84
2022/10/31 00:28:38;;;;;;;18.77;14.55;;;;;;;11.37;100.00;99945.66;4900600;29;20503;-84
2022/10/31 00:31:06;;;;;;;19.67;13.48;;;;;;;11.38;100.00;99952.59;4916210;29;20373;-84
2022/10/31 00:33:33;;;;;;;23.80;13.40;;;;;;;11.34;100.00;99947.56;4916628;29;20524;-84
2022/10/31 00:35:59;;;;;;;22.00;13.45;;;;;;;11.32;100.00;99950.22;4916168;29;20032;-85
2022/10/31 00:38:24;;;;;;;21.73;14.13;;;;;;;11.24;100.00;99942.75;4916259;29;20030;-85
2022/10/31 00:40:49;;;;;;;23.13;13.75;;;;;;;11.27;100.00;99969.63;4941437;28;20034;-84
2022/10/31 00:43:15;;;;;;;23.50;12.65;;;;;;;11.15;100.00;99957.97;4976487;28;20406;-84
2022/10/31 00:45:42;;;;;;;24.55;13.77;;;;;;;11.10;100.00;99957.31;4976277;28;20422;-84
2022/10/31 00:48:08;;;;;;;17.92;11.90;;;;;;;11.15;100.00;99963.19;4975806;28;20467;-84
2022/10/31 00:50:33;;;;;;;20.73;12.98;;;;;;;11.10;100.00;99959.94;4975940;28;20037;-84
2022/10/31 00:52:58;;;;;;;20.23;12.27;;;;;;;11.07;100.00;99973.09;4975353;28;20023;-84
2022/10/31 00:55:24;;;;;;;16.48;12.05;;;;;;;10.92;100.00;99944.19;4976044;28;20026;-84
2022/10/31 00:57:49;;;;;;;23.40;12.50;;;;;;;10.99;100.00;99971.66;4975436;28;20029;-84
2022/10/31 01:00:15;;;;;;;17.55;12.30;;;;;;;10.89;100.00;99959.09;4975780;28;20022;-85
2022/10/31 01:02:40;;;;;;;21.48;13.05;;;;;;;10.92;100.00;99969.41;4975665;28;20031;-85
2022/10/31 01:05:06;;;;;;;26.17;14.88;;;;;;;10.85;100.00;99965.34;4957923;28;20018;-85
2022/10/31 01:07:31;;;;;;;23.02;13.60;;;;;;;10.87;100.00;99966.13;4975753;28;20467;-84
2022/10/31 01:09:57;;;;;;;23.27;14.25;;;;;;;10.81;100.00;99963.78;4975498;28;20029;-84
2022/10/31 01:12:22;;;;;;;24.17;14.25;;;;;;;10.81;100.00;99975.06;4975971;28;20469;-84
2022/10/31 01:14:48;;;;;;;23.00;13.80;;;;;;;10.73;100.00;99967.56;4975333;28;20022;-84
2022/10/31 01:17:14;;;;;;;23.08;13.57;;;;;;;10.77;100.00;99973.50;4975506;28;20493;-84
2022/10/31 01:19:39;;;;;;;26.77;14.25;;;;;;;10.69;100.00;99955.56;4974091;28;20029;-84
2022/10/31 01:22:05;;;;;;;26.92;14.88;;;;;;;10.74;100.00;99974.47;4974918;28;20027;-84
2022/10/31 01:24:30;;;;;;;28.27;14.43;;;;;;;10.71;100.00;99965.94;4975339;28;20026;-84
2022/10/31 01:26:55;;;;;;;24.48;15.15;;;;;;;10.75;100.00;99967.50;4975201;28;20157;-84
2022/10/31 01:29:21;;;;;;;22.70;13.98;;;;;;;10.67;100.00;99957.41;4975245;28;20022;-84
2022/10/31 01:31:46;;;;;;;25.00;15.98;;;;;;;10.72;100.00;99965.88;4975066;28;20019;-84
2022/10/31 01:34:17;;;;;;;23.05;14.85;;;;;;;10.65;100.00;99961.81;4975015;28;20030;-84
2022/10/31 01:36:44;;;;;;;24.20;15.50;;;;;;;10.63;100.00;99957.59;4974986;28;20042;-84
2022/10/31 01:39:12;;;;;;;30.17;16.20;;;;;;;10.64;100.00;99960.13;4975011;28;20027;-84
2022/10/31 01:41:44;;;;;;;32.85;17.05;;;;;;;10.64;100.00;99964.50;4975115;28;20030;-84
2022/10/31 01:44:15;;;;;;;25.52;15.75;;;;;;;10.74;100.00;99976.22;4974705;28;20136;-84
2022/10/31 01:46:46;;;;;;;27.58;16.77;;;;;;;10.74;100.00;99971.00;4974810;28;20371;-84
2022/10/31 01:49:17;;;;;;;29.30;16.90;;;;;;;10.72;100.00;99971.09;4974571;28;20023;-84
2022/10/31 01:52:07;;;;;;;25.77;15.82;;;;;;;10.69;100.00;99952.97;4974999;28;20050;-85
2022/10/31 01:54:38;;;;;;;25.25;16.17;;;;;;;10.74;100.00;99969.28;4974321;28;20051;-85
2022/10/31 01:57:06;;;;;;;24.48;15.43;;;;;;;10.66;100.00;99958.31;4974781;28;20026;-85
2022/10/31 01:59:37;;;;;;;23.80;16.92;;;;;;;10.73;100.00;99966.72;4973323;28;20118;-84
2022/10/31 02:02:03;;;;;;;27.90;14.82;;;;;;;10.72;100.00;99967.63;4974737;28;20110;-84
2022/10/31 02:04:29;;;;;;;27.48;15.73;;;;;;;10.63;100.00;99961.06;4974777;28;20106;-85
2022/10/31 02:07:03;;;;;;;24.33;16.33;;;;;;;10.66;100.00;99957.44;4974792;28;20031;-85
2022/10/31 02:09:30;;;;;;;29.20;16.60;;;;;;;10.64;100.00;99978.38;4974576;28;20073;-85
2022/10/31 02:11:58;;;;;;;23.20;16.58;;;;;;;10.60;100.00;99968.97;4974247;28;20042;-85
2022/10/31 02:14:26;;;;;;;29.13;17.48;;;;;;;10.60;100.00;99974.19;4974640;28;20035;-85
2022/10/31 02:16:53;;;;;;;25.65;16.80;;;;;;;10.60;100.00;99971.59;4974296;28;20081;-85
2022/10/31 02:19:27;;;;;;;27.48;18.42;;;;;;;10.53;100.00;99961.47;4974388;28;20037;-85
2022/10/31 02:22:21;;;;;;;30.02;19.10;;;;;;;10.60;100.00;99973.34;4973839;28;20026;-85
2022/10/31 02:24:56;;;;;;;29.20;18.83;;;;;;;10.61;100.00;99972.44;4914294;29;20514;-85
2022/10/31 02:27:45;;;;;;;27.02;18.25;;;;;;;10.55;100.00;99962.28;4914327;29;20208;-85
2022/10/31 02:30:39;;;;;;;30.23;19.20;;;;;;;10.61;100.00;99970.66;4914034;29;20040;-85
2022/10/31 02:33:10;;;;;;;27.52;18.85;;;;;;;10.53;100.00;99958.88;4905884;29;20024;-85
2022/10/31 02:35:54;;;;;;;;;;;;;;;10.61;100.00;99975.03;4914441;29;20159;-85
2022/10/31 02:38:51;;;;;;;29.88;17.77;;;;;;;10.56;100.00;99974.38;4914097;29;19951;-85
2022/10/31 02:41:22;;;;;;;25.50;17.65;;;;;;;10.55;100.00;99980.50;4898288;29;20195;-85
2022/10/31 02:44:28;;;;;;;28.33;16.65;;;;;;;10.53;100.00;99980.56;4913849;29;20035;-85
2022/10/31 02:47:01;;;;;;;28.65;18.15;;;;;;;10.43;100.00;99969.69;4857243;29;20069;-85
2022/10/31 02:49:53;;;;;;;27.13;17.08;;;;;;;10.49;100.00;99984.19;4857829;29;20049;-85
2022/10/31 02:52:27;;;;;;;29.27;18.13;;;;;;;10.47;100.00;99975.63;4857869;29;20084;-84
2022/10/31 02:54:53;;;;;;;23.45;16.65;;;;;;;10.41;100.00;99963.69;4857568;29;20053;-84
2022/10/31 02:57:28;;;;;;;30.20;16.38;;;;;;;10.46;100.00;99976.53;4857856;29;20034;-84
2022/10/31 03:00:00;;;;;;;26.17;17.33;;;;;;;10.43;100.00;99977.50;4857447;29;20029;-85
2022/10/31 03:02:40;;;;;;;26.40;16.67;;;;;;;10.48;100.00;99991.16;4890911;29;20276;-84
2022/10/31 03:05:21;;;;;;;31.05;16.35;;;;;;;10.48;100.00;99990.31;4894695;29;20028;-85
2022/10/31 03:08:24;;;;;;;25.45;15.82;;;;;;;10.46;100.00;99982.59;4879184;29;20496;-84
2022/10/31 03:10:55;;;;;;;25.63;16.73;;;;;;;10.48;100.00;99992.94;4821086;29;20642;-84
2022/10/31 03:13:36;;;;;;;;;;;;;;;10.47;100.00;99992.09;4821518;29;20043;-84
2022/10/31 03:16:25;;;;;;;23.73;15.30;;;;;;;10.42;100.00;99993.19;4805549;29;19913;-84
2022/10/31 03:18:59;;;;;;;28.10;16.77;;;;;;;10.30;100.00;99984.09;4821059;29;20503;-84
2022/10/31 03:21:35;;;;;;;23.60;15.63;;;;;;;10.35;100.00;99994.34;4822733;29;20042;-84
2022/10/31 03:24:02;;;;;;;21.85;16.20;;;;;;;10.35;100.00;99994.34;4857267;29;20034;-84
2022/10/31 03:26:29;;;;;;;24.33;14.70;;;;;;;10.30;100.00;99994.53;4857658;29;20492;-84
2022/10/31 03:29:02;;;;;;;21.17;14.88;;;;;;;10.23;100.00;99980.00;4851822;29;20046;-84
2022/10/31 03:31:51;;;;;;;27.42;16.55;;;;;;;10.32;100.00;100007.47;4857411;29;20405;-84
2022/10/31 03:34:19;;;;;;;22.90;16.02;;;;;;;10.29;100.00;99994.59;4841603;29;20138;-85
2022/10/31 03:36:48;;;;;;;23.88;14.95;;;;;;;10.27;100.00;99999.84;4857361;29;20486;-84
2022/10/31 03:39:17;;;;;;;24.00;14.95;;;;;;;10.27;100.00;100010.25;4857063;29;20133;-84
2022/10/31 03:41:49;;;;;;;24.60;15.60;;;;;;;10.25;100.00;100009.47;4857162;29;20037;-84
2022/10/31 03:44:18;;;;;;;22.25;15.52;;;;;;;10.17;100.00;99996.72;4856842;29;20037;-84
2022/10/31 03:46:44;;;;;;;24.85;15.32;;;;;;;10.20;100.00;100000.97;4930463;28;20182;-85
2022/10/31 03:49:11;;;;;;;25.33;15.63;;;;;;;10.16;100.00;99989.00;4972859;28;20027;-85
2022/10/31 03:52:05;;;;;;;25.25;15.40;;;;;;;10.20;100.00;99995.78;4973141;28;20042;-84
2022/10/31 03:54:45;;;;;;;20.48;14.43;;;;;;;10.13;100.00;99996.91;4931275;29;20432;-84
2022/10/31 03:57:22;;;;;;;27.57;15.83;;;;;;;10.14;100.00;100001.19;4932011;29;20156;-84
2022/10/31 03:59:55;;;;;;;22.92;15.18;;;;;;;10.08;100.00;99988.44;4935861;29;20059;-84
2022/10/31 04:02:26;;;;;;;27.35;15.77;;;;;;;10.11;100.00;100001.31;4935793;29;20038;-84
2022/10/31 04:04:51;;;;;;;;;;;;;;;10.12;100.00;100008.25;4936472;29;20019;-84
2022/10/31 04:07:21;;;;;;;23.10;14.73;;;;;;;10.03;100.00;100000.75;4935751;29;19947;-84
2022/10/31 04:09:49;;;;;;;30.73;16.63;;;;;;;10.08;100.00;100004.06;4935811;29;20114;-84
2022/10/31 04:12:16;;;;;;;23.88;14.57;;;;;;;10.04;100.00;100008.53;4935623;29;20032;-84
2022/10/31 04:14:46;;;;;;;26.77;15.48;;;;;;;10.05;100.00;100006.78;4935642;29;20079;-84
2022/10/31 04:17:15;;;;;;;21.73;14.47;;;;;;;10.03;100.00;100008.56;4935424;29;20118;-84
2022/10/31 04:19:41;;;;;;;23.98;15.50;;;;;;;9.99;100.00;100003.50;4935716;29;20036;-84
2022/10/31 04:22:06;;;;;;;24.17;15.05;;;;;;;9.93;100.00;99995.91;4935246;29;20511;-84
2022/10/31 04:24:32;;;;;;;25.50;15.07;;;;;;;10.05;100.00;100012.81;4935419;29;20480;-84
2022/10/31 04:26:57;;;;;;;29.38;17.15;;;;;;;9.94;100.00;100000.25;4935520;29;20091;-84
2022/10/31 04:29:23;;;;;;;24.67;16.75;;;;;;;9.98;100.00;99996.59;4935542;29;20111;-84
2022/10/31 04:31:48;;;;;;;22.77;15.50;;;;;;;10.03;100.00;100008.56;4953299;28;20031;-84
2022/10/31 04:34:13;;;;;;;22.85;15.48;;;;;;;9.99;100.00;100002.66;4976549;28;20070;-84
2022/10/31 04:36:39;;;;;;;24.83;15.48;;;;;;;9.90;100.00;99993.47;4959031;28;20470;-84
2022/10/31 04:39:04;;;;;;;29.80;16.23;;;;;;;9.92;100.00;100004.63;4976015;28;20049;-84
2022/10/31 04:41:30;;;;;;;23.90;14.63;;;;;;;9.91;100.00;99996.91;4976214;28;20029;-84
2022/10/31 04:43:55;;;;;;;22.77;14.95;;;;;;;9.91;100.00;100010.75;4976093;28;20022;-84
2022/10/31 04:46:21;;;;;;;24.63;14.93;;;;;;;9.90;100.00;100011.69;4975691;28;20025;-84
2022/10/31 04:48:46;;;;;;;22.83;15.38;;;;;;;9.78;100.00;99995.69;4958803;28;20470;-85
2022/10/31 04:51:11;;;;;;;25.58;16.52;;;;;;;9.78;100.00;100009.53;4953791;29;20039;-84
2022/10/31 04:53:37;;;;;;;30.17;17.80;;;;;;;9.70;100.00;100007.22;4953972;29;20086;-85
2022/10/31 04:56:02;;;;;;;29.38;18.08;;;;;;;9.68;100.00;100002.97;4954219;29;20031;-84
2022/10/31 04:58:28;;;;;;;29.58;17.80;;;;;;;9.72;100.00;100023.59;4954006;29;20023;-85
2022/10/31 05:00:55;;;;;;;30.20;17.98;;;;;;;9.69;100.00;100015.06;4934299;29;20039;-85
2022/10/31 05:03:21;;;;;;;24.52;17.05;;;;;;;9.63;100.00;100018.75;4918817;29;20046;-85
2022/10/31 05:05:46;;;;;;;26.75;16.70;;;;;;;9.64;100.00;100019.59;4918824;29;20032;-85
2022/10/31 05:08:12;;;;;;;24.27;16.83;;;;;;;9.52;100.00;100012.22;4934084;29;20036;-85
2022/10/31 05:10:37;;;;;;;29.73;17.30;;;;;;;9.55;100.00;100019.91;4918775;29;20032;-84
2022/10/31 05:13:04;;;;;;;28.10;16.80;;;;;;;9.48;100.00;100014.97;4934396;29;20443;-84
2022/10/31 05:15:30;;;;;;;23.52;16.95;;;;;;;9.53;100.00;100025.19;4934317;29;20385;-84
2022/10/31 05:17:56;;;;;;;27.98;17.50;;;;;;;9.46;100.00;100014.16;4934410;29;20488;-84
2022/10/31 05:20:25;;;;;;;28.17;16.48;;;;;;;9.48;100.00;100027.97;4933963;29;20043;-84
2022/10/31 05:22:52;;;;;;;24.95;17.02;;;;;;;9.43;100.00;100019.44;4934276;29;20043;-84
2022/10/31 05:25:19;;;;;;;30.58;17.17;;;;;;;9.42;100.00;100020.38;4934221;29;20028;-84
2022/10/31 05:27:47;;;;;;;24.75;17.05;;;;;;;9.37;100.00;100018.84;4934445;29;20183;-85
2022/10/31 05:30:16;;;;;;;29.48;18.30;;;;;;;9.30;100.00;100013.00;4934194;29;20035;-85
2022/10/31 05:32:44;;;;;;;28.35;17.70;;;;;;;9.38;100.00;100026.56;4964772;28;20043;-84
2022/10/31 05:35:13;;;;;;;28.67;17.77;;;;;;;9.27;100.00;100017.44;4975054;28;20022;-84
2022/10/31 05:37:39;;;;;;;34.75;17.90;;;;;;;9.30;100.00;100031.19;4934182;29;20197;-84
2022/10/31 05:40:07;;;;;;;27.15;17.98;;;;;;;9.29;100.00;100037.31;4934049;29;20050;-84
2022/10/31 05:42:32;;;;;;;27.33;18.17;;;;;;;9.27;100.00;100046.03;4933986;29;20040;-84
2022/10/31 05:44:58;;;;;;;28.88;19.08;;;;;;;9.28;100.00;100052.97;4934068;29;20042;-84
2022/10/31 05:47:23;;;;;;;31.85;20.17;;;;;;;9.15;100.00;100031.75;4917901;29;20058;-84
2022/10/31 05:49:49;;;;;;;30.48;19.08;;;;;;;9.25;100.00;100052.16;4934419;29;20095;-84
2022/10/31 05:52:14;;;;;;;31.95;19.63;;;;;;;9.27;100.00;100046.91;4933879;29;20046;-84
2022/10/31 05:54:40;;;;;;;28.80;20.17;;;;;;;9.32;100.00;100054.56;4948977;29;20059;-84
2022/10/31 05:57:05;;;;;;;37.08;21.77;;;;;;;9.25;100.00;100039.16;4937085;29;20031;-84
2022/10/31 05:59:31;;;;;;;30.83;20.67;;;;;;;9.34;100.00;100050.97;4936821;29;20031;-84
2022/10/31 06:01:56;;;;;;;36.05;20.95;;;;;;;9.39;100.00;100063.81;4953058;29;20027;-84
2022/10/31 06:04:21;;;;;;;30.45;20.13;;;;;;;9.45;100.00;100059.25;4936560;29;20039;-85
2022/10/31 06:06:47;;;;;;;36.63;19.88;;;;;;;9.47;100.00;100056.59;4953017;29;20278;-84
2022/10/31 06:09:12;;;;;;;34.03;20.20;;;;;;;9.53;100.00;100058.16;4968774;28;20046;-84
2022/10/31 06:11:37;;;;;;;30.23;19.55;;;;;;;9.56;100.00;100050.22;4974670;28;20027;-84
2022/10/31 06:14:04;;;;;;;31.65;22.15;;;;;;;9.71;100.00;100058.31;4974588;28;20061;-84
2022/10/31 06:16:29;;;;;;;31.40;21.48;;;;;;;9.82;100.00;100063.13;4974428;28;20470;-84
2022/10/31 06:18:55;;;;;;;30.02;21.05;;;;;;;9.93;100.00;100055.75;4957110;28;20034;-84
2022/10/31 06:21:20;;;;;;;33.15;20.67;;;;;;;10.08;100.00;100061.31;4973236;28;20019;-84
2022/10/31 06:23:45;;;;;;;29.25;20.60;;;;;;;10.22;100.00;100059.03;4952283;29;20425;-84
2022/10/31 06:26:11;;;;;;;33.58;20.67;;;;;;;10.66;100.00;100064.25;4952261;29;20027;-84
2022/10/31 06:28:36;;;;;;;37.05;22.40;;;;;;;10.89;100.00;100039.88;4952483;29;20043;-84
2022/10/31 06:31:01;;;;;;;30.83;21.35;;;;;;;11.14;100.00;100053.56;4952729;29;20023;-84
2022/10/31 06:33:27;;;;;;;33.22;20.58;;;;;;;11.42;100.00;100081.09;4952314;29;20039;-85
2022/10/31 06:35:52;;;;;;;38.90;21.70;;;;;;;11.53;100.00;100063.19;4952323;29;20050;-85
2022/10/31 06:38:17;;;;;;;29.65;19.27;;;;;;;11.73;100.00;100071.00;4935985;29;20408;-85
2022/10/31 06:40:43;;;;;;;28.65;19.00;;;;;;;11.94;100.00;100071.81;4952241;29;20066;-85
2022/10/31 06:43:08;;;;;;;27.90;18.30;;;;;;;12.19;100.00;100066.31;4951850;29;20435;-84
2022/10/31 06:45:34;;;;;;;27.40;19.92;;;;;;;12.61;100.00;100070.44;4952152;29;20147;-84
2022/10/31 06:47:59;;;;;;;30.27;19.45;;;;;;;13.55;100.00;100074.47;4952231;29;20478;-84
2022/10/31 06:50:25;;;;;;;29.77;18.85;;;;;;;14.40;100.00;100078.63;4951910;29;20438;-84
2022/10/31 06:52:52;;;;;;;30.52;17.95;;;;;;;14.58;100.00;100082.00;4934822;29;20127;-84
2022/10/31 06:55:17;;;;;;;23.80;17.35;;;;;;;14.62;100.00;100087.03;4948053;29;20039;-84
2022/10/31 06:57:49;;;;;;;27.95;18.83;;;;;;;15.15;100.00;100097.97;4954328;29;20030;-84
2022/10/31 07:00:15;;;;;;;26.00;18.63;;;;;;;16.11;96.38;100083.47;4952982;29;20023;-84
2022/10/31 07:02:40;;;;;;;27.38;19.70;;;;;;;16.43;92.17;100084.91;4937056;29;20027;-84
2022/10/31 07:05:06;;;;;;;26.00;18.30;;;;;;;16.14;92.50;100072.78;4954319;29;20117;-84
2022/10/31 07:07:31;;;;;;;32.22;22.70;;;;;;;15.91;93.11;100087.31;4956374;28;20082;-85
2022/10/31 07:09:57;;;;;;;33.17;19.77;;;;;;;15.63;93.96;100080.25;4954362;29;20031;-84
2022/10/31 07:12:22;;;;;;;31.13;20.20;;;;;;;15.56;94.60;100100.78;4952717;29;20029;-85
2022/10/31 07:14:47;;;;;;;31.40;21.17;;;;;;;15.52;95.29;100090.56;4953968;29;20031;-85
2022/10/31 07:17:13;;;;;;;35.67;23.20;;;;;;;15.54;95.81;100086.06;4954032;29;20570;-84
2022/10/31 07:19:38;;;;;;;28.33;20.70;;;;;;;15.61;95.72;100095.25;4954144;29;20027;-85
2022/10/31 07:22:04;;;;;;;26.75;20.30;;;;;;;15.62;95.86;100089.91;4953989;28;20030;-85
2022/10/31 07:24:30;;;;;;;25.00;17.67;;;;;;;15.67;95.94;100098.41;4958147;28;20034;-85
2022/10/31 07:26:55;;;;;;;23.10;15.20;;;;;;;15.70;95.99;100092.94;4945975;28;20670;-85
2022/10/31 07:29:21;;;;;;;23.73;15.40;;;;;;;15.80;95.48;100097.63;4942551;28;20126;-85
2022/10/31 07:31:46;;;;;;;18.63;12.88;;;;;;;15.86;94.94;100095.50;4949671;28;20022;-85
2022/10/31 07:34:12;;;;;;;15.98;12.18;;;;;;;15.87;94.39;100089.28;4973314;28;20063;-85
2022/10/31 07:36:37;;;;;;;15.98;11.40;;;;;;;15.99;94.19;100105.25;4973139;28;20023;-85
2022/10/31 07:39:03;;;;;;;22.10;11.60;;;;;;;16.09;93.90;100103.72;4973128;28;20034;-85
2022/10/31 07:41:28;;;;;;;19.02;11.15;;;;;;;16.15;93.23;100093.69;4955330;28;20348;-85
2022/10/31 07:43:53;;;;;;;19.55;10.88;;;;;;;16.21;92.71;100106.44;4955850;28;20033;-85
2022/10/31 07:46:19;;;;;;;16.98;10.70;;;;;;;16.21;91.98;100098.53;4972847;28;20030;-84
2022/10/31 07:48:44;;;;;;;23.33;11.82;;;;;;;16.38;91.51;100102.72;4972927;28;20050;-86
2022/10/31 07:51:10;;;;;;;18.38;10.73;;;;;;;16.51;91.08;100101.97;4939790;28;20023;-84
2022/10/31 07:53:35;;;;;;;16.08;10.68;;;;;;;16.51;90.27;100107.22;4957054;28;20051;-85
2022/10/31 07:56:00;;;;;;;15.68;9.90;;;;;;;16.55;90.34;100104.28;4973148;28;20521;-85
2022/10/31 07:58:26;;;;;;;18.60;10.48;;;;;;;16.66;90.23;100101.81;4972760;28;20027;-84
2022/10/31 08:00:51;;;;;;;13.90;9.25;;;;;;;16.75;90.17;100105.69;4972901;28;20015;-87
2022/10/31 08:03:18;;;;;;;15.52;10.10;;;;;;;16.79;90.44;100101.06;4955308;28;20041;-88
2022/10/31 08:05:47;;;;;;;15.68;10.15;;;;;;;16.83;90.16;100116.53;4954843;28;20053;-85
2022/10/31 08:08:14;;;;;;;18.40;10.52;;;;;;;16.73;89.63;100089.16;4971190;28;20026;-86
2022/10/31 08:10:40;;;;;;;16.15;10.80;;;;;;;16.95;89.51;100117.53;4990793;28;20027;-85
2022/10/31 08:13:11;;;;;;;17.92;10.43;;;;;;;16.98;88.62;100116.47;4992067;28;20037;-85
2022/10/31 08:15:39;;;;;;;20.77;10.68;;;;;;;16.93;88.63;100107.09;4983587;28;20481;-84
2022/10/31 08:18:14;;;;;;;16.67;9.38;;;;;;;16.99;88.77;100116.41;4992092;28;20065;-84
2022/10/31 08:20:40;;;;;;;21.00;9.98;;;;;;;16.97;89.00;100115.63;4991752;28;20026;-82
2022/10/31 08:23:06;;;;;;;13.30;8.93;;;;;;;16.92;88.57;100115.94;4989744;28;20023;-86
2022/10/31 08:25:34;;;;;;;14.80;9.00;;;;;;;16.90;88.25;100104.69;4974309;28;20422;-85
2022/10/31 08:27:59;;;;;;;18.70;9.48;;;;;;;16.91;88.17;100116.88;4992018;28;20034;-85
2022/10/31 08:30:27;;;;;;;19.60;9.40;;;;;;;16.93;88.72;100117.63;4991799;28;20069;-89
2022/10/31 08:33:09;;;;;;;15.15;10.07;;;;;;;16.89;88.79;100117.91;4991683;28;20549;-86
2022/10/31 08:35:34;;;;;;;13.63;9.35;;;;;;;16.87;88.78;100115.41;4992010;28;20073;-86
2022/10/31 08:38:00;;;;;;;15.77;9.48;;;;;;;16.90;88.52;100117.84;4962858;28;20023;-86
2022/10/31 08:40:28;;;;;;;12.43;8.73;;;;;;;16.92;88.69;100115.94;4939389;29;20426;-86
2022/10/31 08:43:01;;;;;;;14.57;8.90;;;;;;;16.98;88.75;100119.97;4943964;28;20043;-85
2022/10/31 08:45:27;;;;;;;15.57;8.52;;;;;;;16.94;88.78;100116.69;4937577;29;20121;-84
2022/10/31 08:47:57;;;;;;;13.45;8.73;;;;;;;16.91;89.27;100114.25;4950667;29;20031;-89
2022/10/31 08:50:22;;;;;;;15.02;8.93;;;;;;;16.89;89.08;100116.13;4921313;29;20032;-85
2022/10/31 08:52:48;;;;;;;13.82;8.30;;;;;;;16.88;88.93;100111.81;4934796;29;20027;-86
2022/10/31 08:55:14;;;;;;;13.27;8.10;;;;;;;16.84;89.66;100109.50;4950470;29;20048;-82
2022/10/31 08:57:40;;;;;;;15.70;8.77;;;;;;;16.83;89.37;100118.34;4942955;29;20032;-82
2022/10/31 09:00:06;;;;;;;15.30;7.75;;;;;;;16.83;89.58;100127.06;4935007;29;20498;-84
2022/10/31 09:02:31;;;;;;;15.65;8.07;;;;;;;16.77;90.17;100127.47;4934269;29;20023;-86
2022/10/31 09:04:57;;;;;;;15.48;8.40;;;;;;;16.70;90.18;100118.25;4934881;29;20106;-87
2022/10/31 09:07:22;;;;;;;16.90;7.80;;;;;;;16.70;90.32;100120.88;4934743;29;20023;-86
2022/10/31 09:09:47;;;;;;;14.68;7.97;;;;;;;16.78;90.50;100123.06;4934676;29;20087;-87
2022/10/31 09:12:13;;;;;;;14.75;8.00;;;;;;;16.80;90.24;100129.88;4935606;29;20605;-91
2022/10/31 09:14:38;;;;;;;10.77;6.80;;;;;;;16.74;90.35;100113.69;4941248;28;20054;-85
2022/10/31 09:17:04;;;;;;;10.65;6.97;;;;;;;16.79;90.69;100124.75;4976795;28;20105;-90
2022/10/31 09:19:29;;;;;;;14.57;8.13;;;;;;;16.83;90.77;100132.34;4959047;28;20027;-90
2022/10/31 09:21:55;;;;;;;9.68;7.13;;;;;;;16.86;90.69;100132.13;4976360;28;20019;-88
2022/10/31 09:24:21;;;;;;;13.23;7.85;;;;;;;16.85;90.88;100117.28;4957841;28;20452;-87
2022/10/31 09:26:46;;;;;;;14.13;7.47;;;;;;;16.91;90.67;100132.69;4975873;28;20023;-90
2022/10/31 09:29:12;;;;;;;12.00;7.25;;;;;;;16.94;90.36;100114.06;4958018;28;20018;-88
2022/10/31 09:31:37;;;;;;;14.07;7.70;;;;;;;17.03;90.06;100125.78;4957287;28;20049;-82
2022/10/31 09:34:03;;;;;;;17.35;8.05;;;;;;;17.01;89.03;100117.13;4975239;28;20030;-84
2022/10/31 09:36:29;;;;;;;13.95;7.47;;;;;;;17.06;88.84;100122.91;4974975;28;20026;-84
2022/10/31 09:38:54;;;;;;;14.25;8.00;;;;;;;17.10;88.44;100124.41;4975218;28;20037;-83
2022/10/31 09:41:30;;;;;;;13.02;7.55;;;;;;;17.11;88.06;100122.66;4975033;28;20026;-91
2022/10/31 09:44:37;;;;;;;13.73;7.15;;;;;;;17.17;88.37;100125.69;4957703;28;20023;-92
2022/10/31 09:47:27;;;;;;;9.95;6.47;;;;;;;17.21;88.05;100126.34;4958761;28;20089;-93
2022/10/31 09:50:08;;;;;;;16.90;7.90;;;;;;;17.24;88.06;100120.88;4968664;28;20039;-82
2022/10/31 09:52:38;;;;;;;14.65;7.60;;;;;;;17.19;87.98;100118.56;4953757;29;20478;-84
2022/10/31 09:55:12;;;;;;;;;;;;;;;17.26;88.17;100134.75;4955929;28;20050;-83
2022/10/31 09:57:40;;;;;;;14.55;7.70;;;;;;;17.27;88.43;100125.06;4955038;29;19925;-83
2022/10/31 10:00:11;;;;;;;15.23;7.18;;;;;;;17.23;88.92;100121.81;4973567;28;20466;-83
2022/10/31 10:03:04;;;;;;;10.73;6.70;;;;;;;17.31;88.74;100132.66;4989725;28;20038;-82
2022/10/31 10:05:36;;;;;;;11.82;7.38;;;;;;;17.33;89.06;100136.06;4993134;28;20036;-82
2022/10/31 10:08:19;;;;;;;11.25;6.65;;;;;;;17.30;89.21;100130.16;4993518;28;20076;-82
2022/10/31 10:10:54;;;;;;;16.00;7.68;;;;;;;17.36;89.54;100145.53;4983878;28;20028;-83
2022/10/31 10:13:52;;;;;;;12.80;7.57;;;;;;;17.39;89.43;100140.06;4992075;28;20112;-82
2022/10/31 10:16:20;;;;;;;13.98;7.57;;;;;;;17.41;89.14;100141.66;4993470;28;20454;-82
2022/10/31 10:19:08;;;;;;;23.73;9.05;;;;;;;17.42;88.50;100132.78;4964116;28;20019;-82
2022/10/31 10:22:05;;;;;;;16.50;7.75;;;;;;;17.48;89.04;100128.06;4971682;28;20034;-82
2022/10/31 10:24:53;;;;;;;19.95;7.25;;;;;;;17.40;89.05;100118.03;4913497;29;20040;-81
2022/10/31 10:27:32;;;;;;;15.95;7.63;;;;;;;17.48;88.74;100131.53;4914120;29;20039;-81
2022/10/31 10:30:21;;;;;;;9.88;6.65;;;;;;;17.44;88.75;100123.03;4913991;29;20080;-81
2022/10/31 10:32:51;;;;;;;11.70;6.57;;;;;;;17.42;88.69;100111.72;4913808;29;20036;-81
2022/10/31 10:35:22;;;;;;;11.10;6.95;;;;;;;17.54;88.64;100127.66;4913777;29;20480;-82
2022/10/31 10:37:52;;;;;;;14.98;7.82;;;;;;;17.52;88.21;100119.00;4897859;29;20118;-82
2022/10/31 10:40:21;;;;;;;16.27;7.68;;;;;;;17.59;88.80;100128.19;4914188;29;20469;-81
2022/10/31 10:43:20;;;;;;;13.37;7.33;;;;;;;17.64;88.82;100126.06;4910034;29;20036;-82
2022/10/31 10:49:11;;;;;;;11.30;6.63;;;;;;;17.70;89.15;100123.03;4851172;29;20133;-81
2022/10/31 10:51:43;;;;;;;11.57;6.93;;;;;;;17.72;88.68;100115.84;4821131;29;20049;-82
2022/10/31 10:54:13;;;;;;;13.98;6.85;;;;;;;17.73;89.22;100122.81;4821292;29;20054;-81
2022/10/31 10:57:00;;;;;;;15.57;7.37;;;;;;;17.76;88.60;100124.44;4821007;29;20149;-81
2022/10/31 10:59:26;;;;;;;14.63;6.80;;;;;;;17.69;88.39;100102.88;4820900;29;20657;-81
2022/10/31 11:01:52;;;;;;;11.93;7.07;;;;;;;17.78;88.67;100114.63;4834105;29;20142;-81
2022/10/31 11:04:25;;;;;;;14.27;7.03;;;;;;;17.77;88.81;100105.03;4839276;29;20105;-81
2022/10/31 11:07:15;;;;;;;15.07;7.15;;;;;;;17.74;88.31;100103.47;4838946;29;20034;-82
2022/10/31 11:09:40;;;;;;;10.23;6.10;;;;;;;17.80;88.77;100113.56;4839059;29;20030;-89
2022/10/31 11:12:09;;;;;;;15.55;6.80;;;;;;;17.82;88.71;100111.66;4844190;29;20025;-91
2022/10/31 11:14:51;;;;;;;12.63;6.30;;;;;;;17.86;88.91;100113.13;4857593;29;20049;-85
2022/10/31 11:17:38;;;;;;;14.23;7.13;;;;;;;17.86;88.54;100107.84;4857866;29;20082;-91
2022/10/31 11:20:20;;;;;;;16.65;7.88;;;;;;;17.98;88.00;100121.97;4826091;29;20042;-91
2022/10/31 11:26:23;;;;;;;9.30;6.30;;;;;;;17.99;88.16;100104.38;4934250;29;20054;-92
2022/10/31 11:29:27;;;;;;;10.75;7.13;;;;;;;18.01;87.91;100113.03;4954928;28;20375;-91
2022/10/31 11:31:56;;;;;;;13.80;7.55;;;;;;;17.97;88.07;100101.84;4933239;29;20046;-83